createdAt,value
2022-12-14T00:01:40.543Z,95977.22
2022-12-14T00:04:07.530Z,95990.19
2022-12-14T00:06:34.432Z,95980.50
2022-12-14T00:09:04.181Z,95973.13
2022-12-14T00:11:32.698Z,95977.53
2022-12-14T00:14:01.585Z,95977.75
2022-12-14T00:16:30.599Z,95959.41
2022-12-14T00:18:58.662Z,95962.72
2022-12-14T00:21:26.517Z,95957.38
2022-12-14T00:23:54.274Z,95954.06
2022-12-14T00:26:26.372Z,95956.59
2022-12-14T00:28:55.372Z,95949.00
2022-12-14T00:31:23.279Z,95952.78
2022-12-14T00:33:50.911Z,95958.41
2022-12-14T00:36:18.485Z,95947.97
2022-12-14T00:38:45.573Z,95944.97
2022-12-14T00:41:12.826Z,95948.25
2022-12-14T00:43:39.907Z,95950.31
2022-12-14T00:46:06.829Z,95947.53
2022-12-14T00:48:33.976Z,95942.19
2022-12-14T00:51:00.806Z,95956.16
2022-12-14T00:53:27.599Z,95951.31
2022-12-14T00:55:54.328Z,95937.63
2022-12-14T00:58:23.039Z,95951.84
2022-12-14T01:01:00.786Z,95951.09
2022-12-14T01:03:28.247Z,95957.47
2022-12-14T01:05:55.331Z,95949.09
2022-12-14T01:08:22.305Z,95962.53
2022-12-14T01:10:50.338Z,95947.00
2022-12-14T01:13:17.072Z,95943.19
2022-12-14T01:15:43.878Z,95939.66
2022-12-14T01:18:10.629Z,95951.09
2022-12-14T01:20:37.317Z,95945.75
2022-12-14T01:23:04.013Z,95931.78
2022-12-14T01:25:30.752Z,95924.94
2022-12-14T01:27:57.478Z,95925.19
2022-12-14T01:30:24.276Z,95913.81
2022-12-14T01:32:50.940Z,95910.81
2022-12-14T01:35:17.624Z,95916.69
2022-12-14T01:37:44.314Z,95913.88
2022-12-14T01:40:11.317Z,95917.94
2022-12-14T01:42:38.377Z,95931.91
2022-12-14T01:45:06.107Z,95927.81
2022-12-14T01:47:42.941Z,95937.63
2022-12-14T01:50:24.918Z,95939.41
2022-12-14T01:52:56.157Z,95938.63
2022-12-14T01:55:27.016Z,95941.16
2022-12-14T01:58:11.266Z,95938.63
2022-12-14T02:00:38.626Z,95930.00
2022-12-14T02:03:20.519Z,95920.03
2022-12-14T02:05:53.641Z,95912.47
2022-12-14T02:08:22.336Z,95902.06
2022-12-14T02:10:50.455Z,95899.78
2022-12-14T02:13:26.095Z,95908.47
2022-12-14T02:15:53.105Z,95921.13
2022-12-14T02:18:27.513Z,95925.94
2022-12-14T02:21:03.032Z,95934.63
2022-12-14T02:24:18.121Z,95932.88
2022-12-14T02:27:06.224Z,95933.06
2022-12-14T02:29:51.086Z,95939.41
2022-12-14T02:32:34.201Z,95952.59
2022-12-14T02:35:07.368Z,95935.56
2022-12-14T02:37:53.981Z,95926.97
2022-12-14T02:40:33.974Z,95915.28
2022-12-14T02:43:30.494Z,95930.00
2022-12-14T02:46:06.286Z,95916.81
2022-12-14T02:49:06.313Z,95904.38
2022-12-14T02:51:41.914Z,95911.50
2022-12-14T02:54:17.076Z,95911.50
2022-12-14T02:56:48.638Z,95908.97
2022-12-14T02:59:16.963Z,95911.50
2022-12-14T03:01:47.337Z,95909.72
2022-12-14T03:04:15.047Z,95903.13
2022-12-14T03:06:58.015Z,95911.03
2022-12-14T03:09:26.841Z,95907.97
2022-12-14T03:12:01.222Z,95901.63
2022-12-14T03:14:34.652Z,95887.91
2022-12-14T03:17:05.344Z,95878.53
2022-12-14T03:19:40.022Z,95876.25
2022-12-14T03:22:29.042Z,95861.25
2022-12-14T03:25:01.768Z,95866.84
2022-12-14T03:27:51.833Z,95861.78
2022-12-14T03:30:43.826Z,95868.38
2022-12-14T03:33:12.454Z,95855.97
2022-12-14T03:35:44.688Z,95850.13
2022-12-14T03:38:35.907Z,95861.25
2022-12-14T03:41:17.097Z,95850.34
2022-12-14T03:43:53.121Z,95857.97
2022-12-14T03:46:36.806Z,95857.72
2022-12-14T03:49:21.498Z,95869.88
2022-12-14T03:52:20.803Z,95866.81
2022-12-14T03:55:01.026Z,95857.69
2022-12-14T03:57:53.451Z,95872.44
2022-12-14T04:00:22.816Z,95865.56
2022-12-14T04:03:07.376Z,95848.84
2022-12-14T04:05:49.100Z,95847.06
2022-12-14T04:08:41.856Z,95851.63
2022-12-14T04:11:30.845Z,95858.50
2022-12-14T04:14:29.848Z,95856.72
2022-12-14T04:17:17.557Z,95874.22
2022-12-14T04:20:22.289Z,95871.94
2022-12-14T04:22:56.089Z,95872.69
2022-12-14T04:25:47.297Z,95862.31
2022-12-14T04:28:44.303Z,95860.78
2022-12-14T04:31:15.922Z,95864.31
2022-12-14T04:33:48.448Z,95868.38
2022-12-14T04:36:38.659Z,95858.75
2022-12-14T04:39:08.923Z,95860.31
2022-12-14T04:41:40.444Z,95872.69
2022-12-14T04:44:18.233Z,95868.47
2022-12-14T04:46:46.978Z,95882.16
2022-12-14T04:49:23.889Z,95877.56
2022-12-14T04:52:05.619Z,95873.00
2022-12-14T04:54:41.460Z,95883.44
2022-12-14T04:57:31.365Z,95862.84
2022-12-14T05:00:00.729Z,95877.06
2022-12-14T05:02:30.357Z,95881.88
2022-12-14T05:05:00.964Z,95872.75
2022-12-14T05:07:42.915Z,95860.34
2022-12-14T05:10:15.139Z,95861.88
2022-12-14T05:13:02.936Z,95845.13
2022-12-14T05:15:41.220Z,95846.63
2022-12-14T05:18:09.356Z,95846.63
2022-12-14T05:20:36.537Z,95840.81
2022-12-14T05:23:03.628Z,95831.41
2022-12-14T05:25:30.306Z,95828.38
2022-12-14T05:27:57.130Z,95827.88
2022-12-14T05:30:23.995Z,95812.66
2022-12-14T05:32:50.756Z,95821.78
2022-12-14T05:35:17.510Z,95826.63
2022-12-14T05:37:44.464Z,95823.31
2022-12-14T05:40:11.781Z,95830.69
2022-12-14T05:42:44.339Z,95819.03
2022-12-14T05:45:13.158Z,95829.94
2022-12-14T05:47:40.119Z,95823.56
2022-12-14T05:50:07.447Z,95815.69
2022-12-14T05:52:34.364Z,95822.31
2022-12-14T05:55:04.521Z,95820.53
2022-12-14T05:57:32.180Z,95817.00
2022-12-14T05:59:58.926Z,95797.47
2022-12-14T06:02:25.838Z,95793.91
2022-12-14T06:04:52.555Z,95794.16
2022-12-14T06:07:23.085Z,95780.97
2022-12-14T06:09:52.728Z,95775.66
2022-12-14T06:12:19.402Z,95779.47
2022-12-14T06:14:46.313Z,95767.28
2022-12-14T06:17:13.099Z,95770.09
2022-12-14T06:19:39.786Z,95763.78
2022-12-14T06:22:06.418Z,95775.72
2022-12-14T06:24:39.752Z,95771.41
2022-12-14T06:27:06.591Z,95771.13
2022-12-14T06:29:33.325Z,95749.56
2022-12-14T06:32:01.497Z,95741.97
2022-12-14T06:34:28.810Z,95749.09
2022-12-14T06:36:55.653Z,95743.50
2022-12-14T06:39:22.373Z,95753.91
2022-12-14T06:41:51.290Z,95742.50
2022-12-14T06:44:18.380Z,95742.75
2022-12-14T06:46:45.336Z,95743.78
2022-12-14T06:49:14.837Z,95747.31
2022-12-14T06:51:42.259Z,95739.19
2022-12-14T06:54:11.676Z,95736.16
2022-12-14T06:56:39.112Z,95738.94
2022-12-14T06:59:05.914Z,95741.22
2022-12-14T07:01:32.759Z,95735.88
2022-12-14T07:03:59.800Z,95719.91
2022-12-14T07:06:29.127Z,95708.22
2022-12-14T07:08:57.929Z,95693.75
2022-12-14T07:11:26.287Z,95652.63
2022-12-14T07:13:54.071Z,95629.28
2022-12-14T07:16:23.996Z,95607.69
2022-12-14T07:18:51.640Z,95564.56
2022-12-14T07:21:20.126Z,95537.41
2022-12-14T07:23:48.332Z,95515.84
2022-12-14T07:26:21.011Z,95493.28
2022-12-14T07:28:48.344Z,95486.44
2022-12-14T07:31:26.566Z,95471.22
2022-12-14T07:33:57.612Z,95462.34
2022-12-14T07:36:26.064Z,95454.50
2022-12-14T07:38:53.605Z,95448.16
2022-12-14T07:41:25.632Z,95439.78
2022-12-14T07:43:54.821Z,95434.97
2022-12-14T07:46:26.867Z,95438.25
2022-12-14T07:48:55.863Z,95434.72
2022-12-14T07:51:26.472Z,95432.94
2022-12-14T07:53:53.762Z,95428.09
2022-12-14T07:56:25.071Z,95419.00
2022-12-14T07:58:52.439Z,95414.41
2022-12-14T08:01:24.869Z,95414.66
2022-12-14T08:03:54.039Z,95424.06
2022-12-14T08:06:22.728Z,95416.44
2022-12-14T08:08:49.740Z,95416.69
2022-12-14T08:11:17.297Z,95415.94
2022-12-14T08:13:44.480Z,95409.31
2022-12-14T08:16:13.872Z,95403.50
2022-12-14T08:18:41.938Z,95405.28
2022-12-14T08:21:10.973Z,95393.88
2022-12-14T08:23:38.233Z,95401.47
2022-12-14T08:26:06.841Z,95383.72
2022-12-14T08:28:35.229Z,95383.50
2022-12-14T08:31:07.071Z,95381.47
2022-12-14T08:33:35.501Z,95370.81
2022-12-14T08:36:07.514Z,95371.56
2022-12-14T08:38:34.389Z,95370.31
2022-12-14T08:41:09.244Z,95373.06
2022-12-14T08:43:36.912Z,95362.97
2022-12-14T08:46:04.885Z,95368.53
2022-12-14T08:48:32.195Z,95356.88
2022-12-14T08:51:03.502Z,95359.63
2022-12-14T08:53:30.830Z,95368.75
2022-12-14T08:55:58.883Z,95369.50
2022-12-14T08:58:26.407Z,95367.75
2022-12-14T09:01:00.999Z,95376.13
2022-12-14T09:03:28.216Z,95370.81
2022-12-14T09:05:55.591Z,95374.34
2022-12-14T09:08:22.642Z,95376.63
2022-12-14T09:10:52.550Z,95377.66
2022-12-14T09:13:19.369Z,95370.78
2022-12-14T09:15:46.076Z,95368.25
2022-12-14T09:18:12.920Z,95368.47
2022-12-14T09:20:39.707Z,95377.88
2022-12-14T09:23:07.496Z,95383.94
2022-12-14T09:25:35.174Z,95381.91
2022-12-14T09:28:01.831Z,95379.13
2022-12-14T09:30:32.025Z,95371.03
2022-12-14T09:33:03.960Z,95376.34
2022-12-14T09:35:55.556Z,95371.53
2022-12-14T09:38:32.265Z,95371.25
2022-12-14T09:41:06.903Z,95376.59
2022-12-14T09:43:42.733Z,95373.81
2022-12-14T09:46:24.534Z,95374.03
2022-12-14T09:48:53.030Z,95363.13
2022-12-14T09:51:22.097Z,95359.31
2022-12-14T09:54:00.717Z,95367.19
2022-12-14T09:56:29.062Z,95373.22
2022-12-14T09:58:57.980Z,95376.75
2022-12-14T10:02:14.061Z,95373.94
2022-12-14T10:04:51.440Z,95372.19
2022-12-14T10:07:22.460Z,95374.72
2022-12-14T10:10:19.781Z,95376.50
2022-12-14T10:12:59.046Z,95371.41
2022-12-14T10:16:04.344Z,95374.72
2022-12-14T10:19:03.618Z,95388.44
2022-12-14T10:21:43.526Z,95382.56
2022-12-14T10:24:17.679Z,95384.31
2022-12-14T10:26:53.600Z,95392.94
2022-12-14T10:29:29.189Z,95386.06
2022-12-14T10:32:21.840Z,95385.53
2022-12-14T10:34:52.458Z,95383.03
2022-12-14T10:37:27.223Z,95382.78
2022-12-14T10:40:13.807Z,95387.31
2022-12-14T10:43:08.322Z,95385.53
2022-12-14T10:45:56.689Z,95376.34
2022-12-14T10:48:40.009Z,95386.50
2022-12-14T10:51:17.210Z,95386.75
2022-12-14T10:53:49.618Z,95387.00
2022-12-14T10:56:26.458Z,95390.34
2022-12-14T10:59:18.059Z,95391.53
2022-12-14T11:01:47.753Z,95394.94
2022-12-14T11:04:36.615Z,95397.41
2022-12-14T11:07:09.213Z,95395.41
2022-12-14T11:09:37.410Z,95409.38
2022-12-14T11:12:13.118Z,95411.53
2022-12-14T11:15:01.881Z,95418.84
2022-12-14T11:17:39.576Z,95427.81
2022-12-14T11:20:25.461Z,95433.63
2022-12-14T11:23:05.938Z,95439.06
2022-12-14T11:25:45.309Z,95437.72
2022-12-14T11:28:18.193Z,95430.97
2022-12-14T11:31:05.327Z,95433.34
2022-12-14T11:33:38.038Z,95432.63
2022-12-14T11:36:06.100Z,95435.56
2022-12-14T11:38:33.026Z,95440.22
2022-12-14T11:41:08.904Z,95448.44
2022-12-14T11:43:40.671Z,95459.81
2022-12-14T11:46:07.838Z,95464.84
2022-12-14T11:48:38.536Z,95464.31
2022-12-14T11:51:11.277Z,95462.75
2022-12-14T11:53:38.416Z,95475.25
2022-12-14T11:56:08.501Z,95494.59
2022-12-14T11:58:46.403Z,95516.38
2022-12-14T12:01:17.087Z,95537.03
2022-12-14T12:03:53.572Z,95549.34
2022-12-14T12:06:26.039Z,95563.75
2022-12-14T12:08:59.784Z,95573.16
2022-12-14T12:11:34.852Z,95598.78
2022-12-14T12:14:05.163Z,95595.22
2022-12-14T12:16:33.292Z,95594.75
2022-12-14T12:19:14.854Z,95596.59
2022-12-14T12:21:44.923Z,95575.66
2022-12-14T12:24:20.607Z,95572.47
2022-12-14T12:26:55.562Z,95581.09
2022-12-14T12:29:31.190Z,95589.34
2022-12-14T12:32:14.194Z,95591.78
2022-12-14T12:34:40.900Z,95593.16
2022-12-14T12:37:27.889Z,95594.88
2022-12-14T12:40:02.388Z,95606.09
2022-12-14T12:43:00.185Z,95632.50
2022-12-14T12:45:36.086Z,95641.19
2022-12-14T12:48:17.506Z,95643.91
2022-12-14T12:50:50.070Z,95635.44
2022-12-14T12:53:23.200Z,95648.31
2022-12-14T12:55:57.501Z,95671.88
2022-12-14T12:58:31.601Z,95691.06
2022-12-14T13:01:02.814Z,95681.88
2022-12-14T13:03:45.308Z,95690.63
2022-12-14T13:06:21.700Z,95654.75
2022-12-14T13:08:55.036Z,95641.66
2022-12-14T13:11:28.174Z,95664.94
2022-12-14T13:14:02.118Z,95676.50
2022-12-14T13:16:38.594Z,95674.59
2022-12-14T13:19:52.515Z,95638.69
2022-12-14T13:22:30.448Z,95646.63
2022-12-14T13:25:09.397Z,95664.19
2022-12-14T13:27:43.952Z,95673.06
2022-12-14T13:30:29.062Z,95695.88
2022-12-14T13:33:26.784Z,95696.44
2022-12-14T13:36:22.700Z,95694.25
2022-12-14T13:39:21.951Z,95713.38
2022-12-14T13:41:58.073Z,95704.75
2022-12-14T13:44:58.520Z,95702.78
2022-12-14T13:47:57.051Z,95695.63
2022-12-14T13:50:37.093Z,95717.44
2022-12-14T13:53:14.094Z,95696.75
2022-12-14T13:55:47.654Z,95694.34
2022-12-14T13:58:20.411Z,95688.53
2022-12-14T14:01:02.431Z,95683.19
2022-12-14T14:03:35.552Z,95675.47
2022-12-14T14:06:11.856Z,95676.22
2022-12-14T14:08:50.681Z,95674.56
2022-12-14T14:11:39.391Z,95668.22
2022-12-14T14:14:29.063Z,95656.75
2022-12-14T14:17:14.681Z,95651.94
2022-12-14T14:19:42.545Z,95645.91
2022-12-14T14:22:26.011Z,95644.34
2022-12-14T14:25:09.427Z,95633.09
2022-12-14T14:27:39.864Z,95633.28
2022-12-14T14:30:43.069Z,95629.50
2022-12-14T14:33:46.676Z,95625.25
2022-12-14T14:36:33.619Z,95619.75
2022-12-14T14:39:54.796Z,95622.53
2022-12-14T14:42:21.628Z,95621.53
2022-12-14T14:44:54.198Z,95615.50
2022-12-14T14:47:30.130Z,95622.84
2022-12-14T14:50:21.591Z,95623.88
2022-12-14T14:53:19.666Z,95633.59
2022-12-14T14:55:58.593Z,95631.00
2022-12-14T14:58:30.647Z,95637.31
2022-12-14T15:01:12.398Z,95648.28
2022-12-14T15:04:08.975Z,95655.50
2022-12-14T15:06:41.440Z,95659.03
2022-12-14T15:09:13.828Z,95652.97
2022-12-14T15:11:50.700Z,95638.25
2022-12-14T15:14:32.506Z,95635.16
2022-12-14T15:17:11.358Z,95639.72
2022-12-14T15:19:38.784Z,95642.50
2022-12-14T15:22:07.873Z,95641.94
2022-12-14T15:24:41.214Z,95636.09
2022-12-14T15:27:30.018Z,95639.22
2022-12-14T15:30:05.820Z,95647.31
2022-12-14T15:32:33.360Z,95635.81
2022-12-14T15:35:03.605Z,95639.66
2022-12-14T15:37:45.586Z,95643.00
2022-12-14T15:40:16.473Z,95639.94
2022-12-14T15:43:01.043Z,95636.19
2022-12-14T15:45:33.100Z,95645.09
2022-12-14T15:48:16.390Z,95638.00
2022-12-14T15:50:49.039Z,95630.38
2022-12-14T15:53:29.024Z,95634.88
2022-12-14T15:56:02.896Z,95636.47
2022-12-14T15:58:39.199Z,95628.38
2022-12-14T16:01:13.327Z,95610.19
2022-12-14T16:03:44.791Z,95604.56
2022-12-14T16:06:14.604Z,95594.91
2022-12-14T16:08:50.574Z,95584.47
2022-12-14T16:11:25.218Z,95578.13
2022-12-14T16:13:52.454Z,95572.50
2022-12-14T16:16:19.549Z,95565.84
2022-12-14T16:18:50.601Z,95572.38
2022-12-14T16:21:30.533Z,95579.78
2022-12-14T16:23:58.597Z,95581.28
2022-12-14T16:26:26.717Z,95584.53
2022-12-14T16:29:28.668Z,95588.13
2022-12-14T16:32:04.593Z,95613.03
2022-12-14T16:34:31.681Z,95617.94
2022-12-14T16:37:31.729Z,95627.59
2022-12-14T16:39:52.940Z,95617.16
2022-12-14T16:42:20.857Z,95623.56
2022-12-14T16:44:48.964Z,95616.91
2022-12-14T16:47:15.784Z,95617.09
2022-12-14T16:49:56.834Z,95627.31
2022-12-14T16:52:36.363Z,95627.63
2022-12-14T16:55:14.823Z,95633.22
2022-12-14T16:57:53.646Z,95630.38
2022-12-14T17:00:29.972Z,95630.13
2022-12-14T17:03:00.749Z,95643.09
2022-12-14T17:05:55.136Z,95634.19
2022-12-14T17:08:21.951Z,95636.69
2022-12-14T17:10:48.753Z,95648.16
2022-12-14T17:13:15.660Z,95647.22
2022-12-14T17:16:03.797Z,95635.97
2022-12-14T17:18:34.645Z,95635.44
2022-12-14T17:21:02.007Z,95638.50
2022-12-14T17:23:29.229Z,95633.19
2022-12-14T17:25:56.262Z,95631.09
2022-12-14T17:28:26.772Z,95634.19
2022-12-14T17:30:57.407Z,95627.53
2022-12-14T17:33:28.918Z,95629.31
2022-12-14T17:35:56.311Z,95618.13
2022-12-14T17:38:23.983Z,95619.63
2022-12-14T17:40:51.469Z,95609.41
2022-12-14T17:43:21.035Z,95608.66
2022-12-14T17:45:48.019Z,95619.34
2022-12-14T17:48:16.086Z,95619.88
2022-12-14T17:50:46.666Z,95619.88
2022-12-14T17:53:15.105Z,95616.81
2022-12-14T17:55:41.820Z,95616.81
2022-12-14T17:58:10.413Z,95610.22
2022-12-14T18:00:56.564Z,95610.22
2022-12-14T18:03:23.761Z,95598.75
2022-12-14T18:05:51.179Z,95601.31
2022-12-14T18:08:21.560Z,95596.00
2022-12-14T18:10:55.046Z,95599.00
2022-12-14T18:13:21.803Z,95601.81
2022-12-14T18:15:51.007Z,95598.00
2022-12-14T18:18:22.619Z,95590.88
2022-12-14T18:20:57.354Z,95596.44
2022-12-14T18:23:24.373Z,95597.19
2022-12-14T18:25:54.383Z,95598.25
2022-12-14T18:28:21.928Z,95594.97
2022-12-14T18:30:57.648Z,95584.78
2022-12-14T18:33:27.279Z,95588.06
2022-12-14T18:35:56.427Z,95596.25
2022-12-14T18:38:23.840Z,95596.97
2022-12-14T18:40:53.285Z,95605.94
2022-12-14T18:43:25.021Z,95596.22
2022-12-14T18:45:53.230Z,95603.84
2022-12-14T18:48:20.629Z,95600.56
2022-12-14T18:50:49.522Z,95596.47
2022-12-14T18:53:19.340Z,95602.06
2022-12-14T18:55:46.322Z,95593.91
2022-12-14T18:58:18.481Z,95591.63
2022-12-14T19:00:45.884Z,95594.94
2022-12-14T19:03:15.224Z,95594.19
2022-12-14T19:05:42.418Z,95604.34
2022-12-14T19:08:10.641Z,95601.78
2022-12-14T19:10:40.690Z,95610.97
2022-12-14T19:13:09.742Z,95619.38
2022-12-14T19:15:36.675Z,95618.38
2022-12-14T19:18:03.647Z,95619.63
2022-12-14T19:20:30.615Z,95621.66
2022-12-14T19:22:57.484Z,95622.19
2022-12-14T19:25:25.784Z,95616.81
2022-12-14T19:30:39.849Z,95624.75
2022-12-14T19:33:06.626Z,95625.19
2022-12-14T19:35:33.446Z,95632.81
2022-12-14T19:38:00.334Z,95627.25
2022-12-14T19:40:27.193Z,95631.59
2022-12-14T19:42:54.164Z,95630.06
2022-12-14T19:45:21.068Z,95623.72
2022-12-14T19:47:47.860Z,95620.94
2022-12-14T19:50:15.643Z,95628.31
2022-12-14T19:52:43.403Z,95625.00
2022-12-14T19:55:11.734Z,95616.06
2022-12-14T19:57:39.836Z,95623.72
2022-12-14T20:00:08.001Z,95624.22
2022-12-14T20:02:37.002Z,95630.06
2022-12-14T20:05:05.760Z,95632.59
2022-12-14T20:07:32.636Z,95633.88
2022-12-14T20:09:59.358Z,95637.25
2022-12-14T20:12:26.126Z,95630.28
2022-12-14T20:14:52.864Z,95633.34
2022-12-14T20:17:19.531Z,95639.72
2022-12-14T20:19:46.362Z,95641.50
2022-12-14T20:22:14.986Z,95649.41
2022-12-14T20:24:42.423Z,95656.78
2022-12-14T20:27:09.435Z,95656.03
2022-12-14T20:29:37.281Z,95665.41
2022-12-14T20:32:04.408Z,95666.44
2022-12-14T20:34:31.262Z,95668.22
2022-12-14T20:36:58.062Z,95672.03
2022-12-14T20:39:24.909Z,95676.84
2022-12-14T20:41:51.730Z,95684.22
2022-12-14T20:44:18.441Z,95679.38
2022-12-14T20:46:46.301Z,95682.16
2022-12-14T20:49:18.412Z,95683.94
2022-12-14T20:51:48.817Z,95678.63
2022-12-14T20:54:18.307Z,95678.59
2022-12-14T20:56:49.297Z,95685.50
2022-12-14T20:59:16.680Z,95682.22
2022-12-14T21:01:44.066Z,95685.75
2022-12-14T21:04:11.043Z,95682.69
2022-12-14T21:06:40.180Z,95677.59
2022-12-14T21:09:15.276Z,95677.06
2022-12-14T21:12:05.943Z,95672.50
2022-12-14T21:14:38.480Z,95675.03
2022-12-14T21:17:05.806Z,95664.38
2022-12-14T21:19:33.723Z,95673.03
2022-12-14T21:22:00.454Z,95675.09
2022-12-14T21:27:20.713Z,95669.19
2022-12-14T21:29:47.948Z,95668.97
2022-12-14T21:32:15.444Z,95667.19
2022-12-14T21:34:43.371Z,95667.94
2022-12-14T21:37:13.081Z,95665.63
2022-12-14T21:39:40.369Z,95658.25
2022-12-14T21:42:10.530Z,95659.78
2022-12-14T21:44:37.708Z,95661.78
2022-12-14T21:47:07.394Z,95660.81
2022-12-14T21:49:37.155Z,95658.50
2022-12-14T21:52:07.332Z,95661.63
2022-12-14T21:54:35.128Z,95660.59
2022-12-14T21:57:20.690Z,95663.66
2022-12-14T21:59:47.363Z,95663.91
2022-12-14T22:02:20.490Z,95673.06
2022-12-14T22:04:47.563Z,95689.13
2022-12-14T22:07:18.842Z,95699.28
2022-12-14T22:09:49.650Z,95697.00
2022-12-14T22:12:18.522Z,95696.97
2022-12-14T22:14:45.221Z,95715.09
2022-12-14T22:17:14.673Z,95712.84
2022-12-14T22:19:41.589Z,95708.28
2022-12-14T22:22:13.238Z,95713.84
2022-12-14T22:24:39.918Z,95727.28
2022-12-14T22:27:06.678Z,95731.88
2022-12-14T22:29:33.500Z,95729.59
2022-12-14T22:32:00.352Z,95732.97
2022-12-14T22:34:27.121Z,95739.81
2022-12-14T22:36:53.870Z,95732.69
2022-12-14T22:39:20.624Z,95738.56
2022-12-14T22:41:49.016Z,95739.59
2022-12-14T22:44:15.749Z,95743.88
2022-12-14T22:46:42.530Z,95743.88
2022-12-14T22:49:10.577Z,95745.94
2022-12-14T22:51:37.232Z,95739.59
2022-12-14T22:54:04.388Z,95748.00
2022-12-14T22:56:45.421Z,95751.56
2022-12-14T22:59:17.309Z,95750.00
2022-12-14T23:01:49.887Z,95764.03
2022-12-14T23:04:17.740Z,95773.94
2022-12-14T23:06:45.165Z,95771.38
2022-12-14T23:09:30.500Z,95774.19
2022-12-14T23:12:21.293Z,95782.59
2022-12-14T23:15:07.939Z,95789.47
2022-12-14T23:17:53.658Z,95798.09
2022-12-14T23:20:39.008Z,95787.69
2022-12-14T23:23:26.607Z,95786.91
2022-12-14T23:26:12.179Z,95792.25
2022-12-14T23:28:57.481Z,95792.78
2022-12-14T23:31:42.719Z,95803.19
2022-12-14T23:34:27.938Z,95792.25
2022-12-14T23:37:18.214Z,95799.88
2022-12-14T23:40:06.752Z,95798.88
2022-12-14T23:42:52.190Z,95812.88
2022-12-14T23:45:38.272Z,95796.81
2022-12-14T23:48:23.804Z,95792.25
2022-12-14T23:51:09.642Z,95793.78
2022-12-14T23:53:55.031Z,95789.97
2022-12-14T23:56:40.465Z,95793.00
2022-12-14T23:59:30.147Z,95800.91
